sensor_id;sensor_type;location;lat;lon;timestamp;pressure;altitude;pressure_sealevel;temperature;humidity
57779;BME280;43608;49.486;9.640;2023-01-28T00:00:20;99348.78;;;0.59;81.59
57779;BME280;43608;49.486;9.640;2023-01-28T00:00:50;99355.19;;;0.66;81.78
57779;BME280;43608;49.486;9.640;2023-01-28T00:01:21;99322.22;;;0.48;81.27
57779;BME280;43608;49.486;9.640;2023-01-28T00:01:51;99358.59;;;0.65;81.59
57779;BME280;43608;49.486;9.640;2023-01-28T00:02:22;99346.25;;;0.61;81.57
57779;BME280;43608;49.486;9.640;2023-01-28T00:02:52;99337.25;;;0.54;81.38
57779;BME280;43608;49.486;9.640;2023-01-28T00:03:22;99338.97;;;0.54;81.37
57779;BME280;43608;49.486;9.640;2023-01-28T00:03:53;99346.25;;;0.61;81.62
57779;BME280;43608;49.486;9.640;2023-01-28T00:04:23;99344.56;;;0.61;81.60
57779;BME280;43608;49.486;9.640;2023-01-28T00:04:54;99337.25;;;0.54;81.55
57779;BME280;43608;49.486;9.640;2023-01-28T00:05:24;99348.91;;;0.62;81.79
57779;BME280;43608;49.486;9.640;2023-01-28T00:06:01;99352.63;;;0.68;81.58
57779;BME280;43608;49.486;9.640;2023-01-28T00:06:32;99333.06;;;0.58;81.60
57779;BME280;43608;49.486;9.640;2023-01-28T00:07:02;99350.94;;;0.68;81.52
57779;BME280;43608;49.486;9.640;2023-01-28T00:07:32;99344.69;;;0.64;81.76
57779;BME280;43608;49.486;9.640;2023-01-28T00:08:03;99345.66;;;0.67;81.85
57779;BME280;43608;49.486;9.640;2023-01-28T00:08:34;99338.66;;;0.65;81.45
57779;BME280;43608;49.486;9.640;2023-01-28T00:09:04;99346.47;;;0.65;81.83
57779;BME280;43608;49.486;9.640;2023-01-28T00:09:34;99344.69;;;0.64;81.60
57779;BME280;43608;49.486;9.640;2023-01-28T00:10:05;99327.84;;;0.58;81.32
57779;BME280;43608;49.486;9.640;2023-01-28T00:10:36;99346.53;;;0.67;81.74
57779;BME280;43608;49.486;9.640;2023-01-28T00:11:10;99317.19;;;0.53;81.58
57779;BME280;43608;49.486;9.640;2023-01-28T00:11:41;99333.28;;;0.62;81.73
57779;BME280;43608;49.486;9.640;2023-01-28T00:12:11;99328.00;;;0.61;81.89
57779;BME280;43608;49.486;9.640;2023-01-28T00:12:42;99330.00;;;0.67;81.92
57779;BME280;43608;49.486;9.640;2023-01-28T00:13:12;99326.28;;;0.61;81.96
57779;BME280;43608;49.486;9.640;2023-01-28T00:13:45;99337.16;;;0.71;81.47
57779;BME280;43608;49.486;9.640;2023-01-28T00:14:16;99340.56;;;0.70;81.57
57779;BME280;43608;49.486;9.640;2023-01-28T00:14:46;99327.25;;;0.63;81.69
57779;BME280;43608;49.486;9.640;2023-01-28T00:15:17;99314.69;;;0.55;81.78
57779;BME280;43608;49.486;9.640;2023-01-28T00:15:57;99317.44;;;0.58;81.91
57779;BME280;43608;49.486;9.640;2023-01-28T00:16:28;99336.22;;;0.70;81.62
57779;BME280;43608;49.486;9.640;2023-01-28T00:16:59;99339.75;;;0.71;81.97
57779;BME280;43608;49.486;9.640;2023-01-28T00:17:29;99328.28;;;0.67;81.95
57779;BME280;43608;49.486;9.640;2023-01-28T00:18:00;99339.59;;;0.68;81.83
57779;BME280;43608;49.486;9.640;2023-01-28T00:18:32;99321.06;;;0.61;81.70
57779;BME280;43608;49.486;9.640;2023-01-28T00:19:02;99344.97;;;0.71;81.83
57779;BME280;43608;49.486;9.640;2023-01-28T00:19:33;99332.53;;;0.65;82.16
57779;BME280;43608;49.486;9.640;2023-01-28T00:20:04;99329.84;;;0.63;81.72
57779;BME280;43608;49.486;9.640;2023-01-28T00:20:34;99342.38;;;0.71;82.13
57779;BME280;43608;49.486;9.640;2023-01-28T00:21:09;99346.75;;;0.72;82.09
57779;BME280;43608;49.486;9.640;2023-01-28T00:21:40;99319.91;;;0.55;81.98
57779;BME280;43608;49.486;9.640;2023-01-28T00:22:11;99328.22;;;0.65;82.30
57779;BME280;43608;49.486;9.640;2023-01-28T00:22:48;99346.88;;;0.75;82.10
57779;BME280;43608;49.486;9.640;2023-01-28T00:23:18;99336.31;;;0.72;82.59
57779;BME280;43608;49.486;9.640;2023-01-28T00:23:51;99323.13;;;0.69;82.87
57779;BME280;43608;49.486;9.640;2023-01-28T00:24:22;99328.56;;;0.73;83.04
57779;BME280;43608;49.486;9.640;2023-01-28T00:24:52;99340.16;;;0.80;82.87
57779;BME280;43608;49.486;9.640;2023-01-28T00:25:22;99340.38;;;0.85;82.52
57779;BME280;43608;49.486;9.640;2023-01-28T00:25:53;99332.47;;;0.83;82.81
57779;BME280;43608;49.486;9.640;2023-01-28T00:26:24;99335.06;;;0.83;82.43
57779;BME280;43608;49.486;9.640;2023-01-28T00:26:54;99334.25;;;0.84;82.77
57779;BME280;43608;49.486;9.640;2023-01-28T00:27:25;99329.03;;;0.84;82.53
57779;BME280;43608;49.486;9.640;2023-01-28T00:27:55;99337.16;;;0.90;82.61
57779;BME280;43608;49.486;9.640;2023-01-28T00:28:26;99340.69;;;0.92;82.26
57779;BME280;43608;49.486;9.640;2023-01-28T00:28:56;99318.59;;;0.84;81.95
57779;BME280;43608;49.486;9.640;2023-01-28T00:29:26;99317.66;;;0.82;82.14
57779;BME280;43608;49.486;9.640;2023-01-28T00:29:57;99343.47;;;0.95;82.43
57779;BME280;43608;49.486;9.640;2023-01-28T00:30:27;99327.59;;;0.91;82.10
57779;BME280;43608;49.486;9.640;2023-01-28T00:30:58;99327.59;;;0.91;82.07
57779;BME280;43608;49.486;9.640;2023-01-28T00:31:28;99308.09;;;0.82;82.02
57779;BME280;43608;49.486;9.640;2023-01-28T00:31:58;99337.56;;;0.99;82.16
57779;BME280;43608;49.486;9.640;2023-01-28T00:32:29;99342.91;;;1.03;82.42
57779;BME280;43608;49.486;9.640;2023-01-28T00:33:00;99338.59;;;1.03;82.21
57779;BME280;43608;49.486;9.640;2023-01-28T00:33:31;99336.03;;;1.05;81.90
57779;BME280;43608;49.486;9.640;2023-01-28T00:34:01;99319.91;;;0.94;81.69
57779;BME280;43608;49.486;9.640;2023-01-28T00:34:32;99333.31;;;1.02;82.04
57779;BME280;43608;49.486;9.640;2023-01-28T00:35:02;99314.53;;;0.91;81.96
57779;BME280;43608;49.486;9.640;2023-01-28T00:35:33;99331.34;;;0.97;81.68
57779;BME280;43608;49.486;9.640;2023-01-28T00:36:04;99340.38;;;1.04;81.98
57779;BME280;43608;49.486;9.640;2023-01-28T00:36:35;99275.34;;;0.70;81.51
57779;BME280;43608;49.486;9.640;2023-01-28T00:37:08;99335.91;;;1.02;81.80
57779;BME280;43608;49.486;9.640;2023-01-28T00:37:38;99315.44;;;0.91;82.00
57779;BME280;43608;49.486;9.640;2023-01-28T00:38:09;99294.06;;;0.80;81.78
57779;BME280;43608;49.486;9.640;2023-01-28T00:38:39;99336.78;;;1.02;81.80
57779;BME280;43608;49.486;9.640;2023-01-28T00:39:13;99324.44;;;0.98;81.81
57779;BME280;43608;49.486;9.640;2023-01-28T00:39:44;99270.66;;;0.62;81.63
57779;BME280;43608;49.486;9.640;2023-01-28T00:40:15;99335.06;;;1.03;81.45
57779;BME280;43608;49.486;9.640;2023-01-28T00:40:46;99328.97;;;1.02;81.42
57779;BME280;43608;49.486;9.640;2023-01-28T00:41:17;99335.00;;;1.01;81.65
57779;BME280;43608;49.486;9.640;2023-01-28T00:41:51;99335.00;;;1.01;81.30
57779;BME280;43608;49.486;9.640;2023-01-28T00:42:22;99327.81;;;0.95;81.76
57779;BME280;43608;49.486;9.640;2023-01-28T00:42:52;99328.69;;;0.96;81.63
57779;BME280;43608;49.486;9.640;2023-01-28T00:43:23;99332.13;;;0.95;81.71
57779;BME280;43608;49.486;9.640;2023-01-28T00:43:54;99324.22;;;0.93;81.77
57779;BME280;43608;49.486;9.640;2023-01-28T00:44:24;99315.34;;;0.90;81.60
57779;BME280;43608;49.486;9.640;2023-01-28T00:44:55;99328.63;;;0.94;81.84
57779;BME280;43608;49.486;9.640;2023-01-28T00:45:25;99308.31;;;0.87;81.99
57779;BME280;43608;49.486;9.640;2023-01-28T00:45:55;99296.50;;;0.76;81.79
57779;BME280;43608;49.486;9.640;2023-01-28T00:46:26;99320.66;;;0.91;81.97
57779;BME280;43608;49.486;9.640;2023-01-28T00:46:56;99324.09;;;0.90;81.62
57779;BME280;43608;49.486;9.640;2023-01-28T00:47:27;99308.09;;;0.82;81.54
57779;BME280;43608;49.486;9.640;2023-01-28T00:47:57;99321.44;;;0.89;81.87
57779;BME280;43608;49.486;9.640;2023-01-28T00:48:28;99326.66;;;0.89;82.10
57779;BME280;43608;49.486;9.640;2023-01-28T00:48:58;99316.97;;;0.86;81.54
57779;BME280;43608;49.486;9.640;2023-01-28T00:49:28;99326.72;;;0.90;81.72
57779;BME280;43608;49.486;9.640;2023-01-28T00:50:00;99273.09;;;0.58;81.92
57779;BME280;43608;49.486;9.640;2023-01-28T00:50:30;99328.34;;;0.88;81.89
57779;BME280;43608;49.486;9.640;2023-01-28T00:51:01;99330.34;;;0.94;81.86
57779;BME280;43608;49.486;9.640;2023-01-28T00:51:32;99340.78;;;0.94;81.93
57779;BME280;43608;49.486;9.640;2023-01-28T00:52:02;99320.38;;;0.85;81.98
57779;BME280;43608;49.486;9.640;2023-01-28T00:52:33;99297.25;;;0.73;81.79
57779;BME280;43608;49.486;9.640;2023-01-28T00:53:03;99316.91;;;0.85;81.93
57779;BME280;43608;49.486;9.640;2023-01-28T00:53:34;99335.47;;;0.92;82.01
57779;BME280;43608;49.486;9.640;2023-01-28T00:54:06;99338.09;;;0.92;82.05
57779;BME280;43608;49.486;9.640;2023-01-28T00:54:36;99315.03;;;0.82;82.13
57779;BME280;43608;49.486;9.640;2023-01-28T00:55:07;99342.50;;;0.93;81.63
57779;BME280;43608;49.486;9.640;2023-01-28T00:55:37;99326.59;;;0.87;81.72
57779;BME280;43608;49.486;9.640;2023-01-28T00:56:11;99336.38;;;0.93;81.85
57779;BME280;43608;49.486;9.640;2023-01-28T00:56:42;99325.88;;;0.91;81.78
57779;BME280;43608;49.486;9.640;2023-01-28T00:57:12;99333.63;;;0.90;82.09
57779;BME280;43608;49.486;9.640;2023-01-28T00:57:43;99333.63;;;0.90;81.84
57779;BME280;43608;49.486;9.640;2023-01-28T00:58:13;99330.94;;;0.88;82.17
57779;BME280;43608;49.486;9.640;2023-01-28T00:58:44;99324.72;;;0.85;82.28
57779;BME280;43608;49.486;9.640;2023-01-28T00:59:14;99325.72;;;0.88;81.85
57779;BME280;43608;49.486;9.640;2023-01-28T00:59:45;99311.41;;;0.78;82.21
57779;BME280;43608;49.486;9.640;2023-01-28T01:00:16;99333.78;;;0.93;82.29
57779;BME280;43608;49.486;9.640;2023-01-28T01:00:49;99308.63;;;0.75;82.45
57779;BME280;43608;49.486;9.640;2023-01-28T01:01:25;99324.78;;;0.86;82.26
57779;BME280;43608;49.486;9.640;2023-01-28T01:01:56;99334.53;;;0.90;82.08
57779;BME280;43608;49.486;9.640;2023-01-28T01:02:41;99316.69;;;0.80;82.15
57779;BME280;43608;49.486;9.640;2023-01-28T01:03:11;99332.81;;;0.91;82.16
57779;BME280;43608;49.486;9.640;2023-01-28T01:03:42;99334.59;;;0.92;82.34
57779;BME280;43608;49.486;9.640;2023-01-28T01:04:13;99312.28;;;0.79;82.14
57779;BME280;43608;49.486;9.640;2023-01-28T01:04:55;99337.16;;;0.90;82.10
57779;BME280;43608;49.486;9.640;2023-01-28T01:05:28;99338.09;;;0.92;82.32
57779;BME280;43608;49.486;9.640;2023-01-28T01:05:59;99335.34;;;0.89;81.96
57779;BME280;43608;49.486;9.640;2023-01-28T01:06:36;99334.59;;;0.92;82.28
57779;BME280;43608;49.486;9.640;2023-01-28T01:07:07;99332.75;;;0.89;82.01
57779;BME280;43608;49.486;9.640;2023-01-28T01:07:38;99326.66;;;0.89;82.40
57779;BME280;43608;49.486;9.640;2023-01-28T01:08:11;99339.00;;;0.93;82.44
57779;BME280;43608;49.486;9.640;2023-01-28T01:08:41;99332.88;;;0.92;82.23
57779;BME280;43608;49.486;9.640;2023-01-28T01:09:19;99329.31;;;0.90;82.33
57779;BME280;43608;49.486;9.640;2023-01-28T01:09:49;99327.47;;;0.88;82.44
57779;BME280;43608;49.486;9.640;2023-01-28T01:10:20;99336.38;;;0.93;82.29
57779;BME280;43608;49.486;9.640;2023-01-28T01:10:50;99329.09;;;0.86;82.38
57779;BME280;43608;49.486;9.640;2023-01-28T01:11:21;99314.06;;;0.80;82.30
57779;BME280;43608;49.486;9.640;2023-01-28T01:11:51;99334.53;;;0.90;82.19
57779;BME280;43608;49.486;9.640;2023-01-28T01:12:21;99337.22;;;0.92;82.48
57779;BME280;43608;49.486;9.640;2023-01-28T01:12:52;99342.56;;;0.95;82.52
57779;BME280;43608;49.486;9.640;2023-01-28T01:13:22;99317.72;;;0.84;82.48
57779;BME280;43608;49.486;9.640;2023-01-28T01:13:54;99343.47;;;0.95;82.58
57779;BME280;43608;49.486;9.640;2023-01-28T01:14:25;99333.84;;;0.94;82.39
57779;BME280;43608;49.486;9.640;2023-01-28T01:14:56;99329.09;;;0.86;82.31
57779;BME280;43608;49.486;9.640;2023-01-28T01:15:26;99325.72;;;0.88;82.14
57779;BME280;43608;49.486;9.640;2023-01-28T01:16:35;99315.94;;;0.82;82.68
57779;BME280;43608;49.486;9.640;2023-01-28T01:17:05;99305.22;;;0.76;82.44
57779;BME280;43608;49.486;9.640;2023-01-28T01:17:37;99336.44;;;0.94;82.13
57779;BME280;43608;49.486;9.640;2023-01-28T01:18:07;99331.09;;;0.91;82.47
57779;BME280;43608;49.486;9.640;2023-01-28T01:18:38;99309.81;;;0.82;82.48
57779;BME280;43608;49.486;9.640;2023-01-28T01:19:10;99324.84;;;0.88;82.34
57779;BME280;43608;49.486;9.640;2023-01-28T01:19:41;99318.59;;;0.84;82.31
57779;BME280;43608;49.486;9.640;2023-01-28T01:20:15;99337.34;;;0.95;82.72
57779;BME280;43608;49.486;9.640;2023-01-28T01:20:45;99338.19;;;0.94;82.74
57779;BME280;43608;49.486;9.640;2023-01-28T01:21:18;99327.41;;;0.86;82.35
57779;BME280;43608;49.486;9.640;2023-01-28T01:21:48;99320.16;;;0.80;82.30
57779;BME280;43608;49.486;9.640;2023-01-28T01:22:19;99306.88;;;0.74;82.56
57779;BME280;43608;49.486;9.640;2023-01-28T01:22:50;99331.94;;;0.90;82.32
57779;BME280;43608;49.486;9.640;2023-01-28T01:23:20;99344.16;;;0.91;82.84
57779;BME280;43608;49.486;9.640;2023-01-28T01:23:51;99341.63;;;0.93;82.50
57779;BME280;43608;49.486;9.640;2023-01-28T01:24:22;99338.09;;;0.92;83.04
57779;BME280;43608;49.486;9.640;2023-01-28T01:24:52;99327.47;;;0.88;82.71
57779;BME280;43608;49.486;9.640;2023-01-28T01:25:22;99320.38;;;0.85;82.79
57779;BME280;43608;49.486;9.640;2023-01-28T01:25:53;99333.50;;;0.87;82.49
57779;BME280;43608;49.486;9.640;2023-01-28T01:26:23;99338.09;;;0.92;82.69
57779;BME280;43608;49.486;9.640;2023-01-28T01:26:56;99320.25;;;0.82;82.81
57779;BME280;43608;49.486;9.640;2023-01-28T01:27:26;99319.34;;;0.81;82.57
57779;BME280;43608;49.486;9.640;2023-01-28T01:27:57;99338.84;;;0.90;82.34
57779;BME280;43608;49.486;9.640;2023-01-28T01:28:27;99339.81;;;0.92;82.82
57779;BME280;43608;49.486;9.640;2023-01-28T01:28:57;99317.56;;;0.80;82.67
57779;BME280;43608;49.486;9.640;2023-01-28T01:29:28;99326.44;;;0.84;82.79
57779;BME280;43608;49.486;9.640;2023-01-28T01:29:58;99338.03;;;0.91;82.79
57779;BME280;43608;49.486;9.640;2023-01-28T01:30:28;99341.44;;;0.90;82.95
57779;BME280;43608;49.486;9.640;2023-01-28T01:31:11;99302.31;;;0.70;82.66
57779;BME280;43608;49.486;9.640;2023-01-28T01:31:43;99343.19;;;0.89;82.87
57779;BME280;43608;49.486;9.640;2023-01-28T01:32:14;99327.25;;;0.83;83.09
57779;BME280;43608;49.486;9.640;2023-01-28T01:32:44;99339.81;;;0.92;83.04
57779;BME280;43608;49.486;9.640;2023-01-28T01:33:15;99303.22;;;0.71;82.73
57779;BME280;43608;49.486;9.640;2023-01-28T01:33:47;99337.22;;;0.92;83.10
57779;BME280;43608;49.486;9.640;2023-01-28T01:34:18;99337.16;;;0.90;82.87
57779;BME280;43608;49.486;9.640;2023-01-28T01:34:48;99341.53;;;0.91;82.98
57779;BME280;43608;49.486;9.640;2023-01-28T01:35:18;99328.16;;;0.84;83.01
57779;BME280;43608;49.486;9.640;2023-01-28T01:35:58;99312.22;;;0.77;82.99
57779;BME280;43608;49.486;9.640;2023-01-28T01:36:28;99299.28;;;0.61;83.03
57779;BME280;43608;49.486;9.640;2023-01-28T01:37:00;99319.06;;;0.75;83.14
57779;BME280;43608;49.486;9.640;2023-01-28T01:37:30;99333.50;;;0.87;83.23
57779;BME280;43608;49.486;9.640;2023-01-28T01:38:00;99345.84;;;0.91;83.21
57779;BME280;43608;49.486;9.640;2023-01-28T01:38:31;99347.66;;;0.92;83.63
57779;BME280;43608;49.486;9.640;2023-01-28T01:39:01;99330.00;;;0.86;83.18
57779;BME280;43608;49.486;9.640;2023-01-28T01:39:31;99329.72;;;0.80;83.39
57779;BME280;43608;49.486;9.640;2023-01-28T01:40:03;99271.00;;;0.51;83.22
57779;BME280;43608;49.486;9.640;2023-01-28T01:40:34;99325.38;;;0.80;83.59
57779;BME280;43608;49.486;9.640;2023-01-28T01:41:04;99345.72;;;0.88;83.37
57779;BME280;43608;49.486;9.640;2023-01-28T01:41:35;99338.66;;;0.85;83.34
57779;BME280;43608;49.486;9.640;2023-01-28T01:42:09;99339.63;;;0.87;83.22
57779;BME280;43608;49.486;9.640;2023-01-28T01:42:40;99320.75;;;0.73;83.78
57779;BME280;43608;49.486;9.640;2023-01-28T01:43:18;99343.13;;;0.88;83.58
57779;BME280;43608;49.486;9.640;2023-01-28T01:43:53;99336.16;;;0.88;83.49
57779;BME280;43608;49.486;9.640;2023-01-28T01:45:32;99322.53;;;0.74;83.83
57779;BME280;43608;49.486;9.640;2023-01-28T01:46:03;99343.00;;;0.85;83.62
57779;BME280;43608;49.486;9.640;2023-01-28T01:46:37;99335.75;;;0.79;83.54
57779;BME280;43608;49.486;9.640;2023-01-28T01:47:10;99342.84;;;0.81;84.17
57779;BME280;43608;49.486;9.640;2023-01-28T01:48:01;99345.72;;;0.88;83.66
57779;BME280;43608;49.486;9.640;2023-01-28T01:48:34;99326.03;;;0.75;83.68
57779;BME280;43608;49.486;9.640;2023-01-28T01:49:26;99346.53;;;0.87;84.06
57779;BME280;43608;49.486;9.640;2023-01-28T01:50:03;99343.06;;;0.86;84.18
57779;BME280;43608;49.486;9.640;2023-01-28T01:50:40;99339.53;;;0.86;83.67
57779;BME280;43608;49.486;9.640;2023-01-28T01:51:15;99343.06;;;0.86;83.98
57779;BME280;43608;49.486;9.640;2023-01-28T01:52:11;99330.53;;;0.79;84.28
57779;BME280;43608;49.486;9.640;2023-01-28T01:52:43;99348.28;;;0.86;84.15
57779;BME280;43608;49.486;9.640;2023-01-28T01:53:16;99329.66;;;0.78;84.44
57779;BME280;43608;49.486;9.640;2023-01-28T01:53:51;99318.88;;;0.71;84.26
57779;BME280;43608;49.486;9.640;2023-01-28T01:54:24;99327.00;;;0.77;84.43
57779;BME280;43608;49.486;9.640;2023-01-28T01:54:58;99332.34;;;0.80;84.09
57779;BME280;43608;49.486;9.640;2023-01-28T01:55:32;99335.75;;;0.79;84.12
57779;BME280;43608;49.486;9.640;2023-01-28T01:56:06;99334.81;;;0.77;84.42
57779;BME280;43608;49.486;9.640;2023-01-28T01:56:40;99341.78;;;0.78;84.58
57779;BME280;43608;49.486;9.640;2023-01-28T01:57:15;99345.50;;;0.83;84.56
57779;BME280;43608;49.486;9.640;2023-01-28T01:57:48;99333.91;;;0.76;84.21
57779;BME280;43608;49.486;9.640;2023-01-28T01:58:22;99332.22;;;0.77;84.47
57779;BME280;43608;49.486;9.640;2023-01-28T01:58:55;99336.44;;;0.75;84.27
57779;BME280;43608;49.486;9.640;2023-01-28T01:59:28;99337.34;;;0.75;84.44
57779;BME280;43608;49.486;9.640;2023-01-28T02:00:00;99344.63;;;0.82;84.48
57779;BME280;43608;49.486;9.640;2023-01-28T02:00:35;99334.06;;;0.79;84.36
57779;BME280;43608;49.486;9.640;2023-01-28T02:01:05;99331.94;;;0.71;84.22
57779;BME280;43608;49.486;9.640;2023-01-28T02:01:36;99329.44;;;0.74;84.45
57779;BME280;43608;49.486;9.640;2023-01-28T02:02:07;99326.66;;;0.69;84.45
57779;BME280;43608;49.486;9.640;2023-01-28T02:02:43;99346.13;;;0.77;84.89
57779;BME280;43608;49.486;9.640;2023-01-28T02:03:16;99353.28;;;0.81;84.43
57779;BME280;43608;49.486;9.640;2023-01-28T02:04:06;99336.50;;;0.76;84.36
57779;BME280;43608;49.486;9.640;2023-01-28T02:04:40;99345.38;;;0.80;84.62
57779;BME280;43608;49.486;9.640;2023-01-28T02:05:12;99346.25;;;0.80;84.91
57779;BME280;43608;49.486;9.640;2023-01-28T02:05:43;99348.88;;;0.80;85.01
57779;BME280;43608;49.486;9.640;2023-01-28T02:06:13;99329.38;;;0.72;84.67
57779;BME280;43608;49.486;9.640;2023-01-28T02:06:44;99313.31;;;0.63;84.56
57779;BME280;43608;49.486;9.640;2023-01-28T02:07:15;99342.78;;;0.80;84.97
57779;BME280;43608;49.486;9.640;2023-01-28T02:07:50;99344.50;;;0.79;84.96
57779;BME280;43608;49.486;9.640;2023-01-28T02:08:24;99337.56;;;0.80;84.63
57779;BME280;43608;49.486;9.640;2023-01-28T02:08:55;99340.09;;;0.78;84.97
57779;BME280;43608;49.486;9.640;2023-01-28T02:09:31;99331.88;;;0.69;84.73
57779;BME280;43608;49.486;9.640;2023-01-28T02:10:04;99337.44;;;0.77;84.98
57779;BME280;43608;49.486;9.640;2023-01-28T02:10:35;99319.41;;;0.63;84.99
57779;BME280;43608;49.486;9.640;2023-01-28T02:11:07;99331.94;;;0.71;85.26
57779;BME280;43608;49.486;9.640;2023-01-28T02:11:38;99333.84;;;0.75;85.32
57779;BME280;43608;49.486;9.640;2023-01-28T02:13:02;99340.03;;;0.77;85.07
57779;BME280;43608;49.486;9.640;2023-01-28T02:13:37;99343.66;;;0.80;85.34
57779;BME280;43608;49.486;9.640;2023-01-28T02:14:09;99340.91;;;0.77;85.28
57779;BME280;43608;49.486;9.640;2023-01-28T02:14:46;99341.03;;;0.80;85.40
57779;BME280;43608;49.486;9.640;2023-01-28T02:15:21;99346.19;;;0.79;84.99
57779;BME280;43608;49.486;9.640;2023-01-28T02:15:54;99343.53;;;0.77;85.25
57779;BME280;43608;49.486;9.640;2023-01-28T02:16:25;99333.97;;;0.78;85.33
57779;BME280;43608;49.486;9.640;2023-01-28T02:16:57;99318.72;;;0.68;85.45
57779;BME280;43608;49.486;9.640;2023-01-28T02:17:27;99349.63;;;0.78;85.61
57779;BME280;43608;49.486;9.640;2023-01-28T02:17:58;99346.38;;;0.82;85.40
57779;BME280;43608;49.486;9.640;2023-01-28T02:18:28;99332.22;;;0.77;85.38
57779;BME280;43608;49.486;9.640;2023-01-28T02:18:59;99333.84;;;0.75;85.12
57779;BME280;43608;49.486;9.640;2023-01-28T02:19:37;99326.91;;;0.75;85.62
57779;BME280;43608;49.486;9.640;2023-01-28T02:20:11;99340.03;;;0.77;85.30
57779;BME280;43608;49.486;9.640;2023-01-28T02:24:01;99318.81;;;0.69;85.91
57779;BME280;43608;49.486;9.640;2023-01-28T02:24:44;99342.84;;;0.81;85.70
57779;BME280;43608;49.486;9.640;2023-01-28T02:25:48;99348.88;;;0.80;85.88
57779;BME280;43608;49.486;9.640;2023-01-28T02:27:47;99349.63;;;0.78;85.89
57779;BME280;43608;49.486;9.640;2023-01-28T02:31:02;99343.41;;;0.74;86.17
57779;BME280;43608;49.486;9.640;2023-01-28T02:32:18;99348.63;;;0.74;86.58
57779;BME280;43608;49.486;9.640;2023-01-28T02:33:04;99332.41;;;0.62;86.41
57779;BME280;43608;49.486;9.640;2023-01-28T02:33:46;99353.84;;;0.74;86.54
57779;BME280;43608;49.486;9.640;2023-01-28T02:34:33;99310.06;;;0.49;86.49
57779;BME280;43608;49.486;9.640;2023-01-28T02:35:46;99352.94;;;0.74;86.64
57779;BME280;43608;49.486;9.640;2023-01-28T02:36:57;99358.16;;;0.74;86.53
57779;BME280;43608;49.486;9.640;2023-01-28T02:37:45;99348.47;;;0.71;86.82
57779;BME280;43608;49.486;9.640;2023-01-28T02:38:25;99359.88;;;0.73;86.75
57779;BME280;43608;49.486;9.640;2023-01-28T02:39:02;99342.97;;;0.65;86.74
57779;BME280;43608;49.486;9.640;2023-01-28T02:39:41;99356.34;;;0.73;87.05
57779;BME280;43608;49.486;9.640;2023-01-28T02:40:27;99333.16;;;0.59;86.91
57779;BME280;43608;49.486;9.640;2023-01-28T02:41:10;99356.34;;;0.73;86.75
57779;BME280;43608;49.486;9.640;2023-01-28T02:41:49;99351.81;;;0.69;87.08
57779;BME280;43608;49.486;9.640;2023-01-28T02:42:28;99344.69;;;0.64;87.34
57779;BME280;43608;49.486;9.640;2023-01-28T02:42:59;99352.84;;;0.72;87.17
57779;BME280;43608;49.486;9.640;2023-01-28T02:44:03;99324.09;;;0.51;87.40
57779;BME280;43608;49.486;9.640;2023-01-28T02:44:33;99334.03;;;0.60;87.30
57779;BME280;43608;49.486;9.640;2023-01-28T02:45:34;99353.69;;;0.71;87.25
57779;BME280;43608;49.486;9.640;2023-01-28T02:47:15;99346.41;;;0.64;87.37
57779;BME280;43608;49.486;9.640;2023-01-28T02:48:04;99350.78;;;0.65;87.55
57779;BME280;43608;49.486;9.640;2023-01-28T02:48:35;99345.44;;;0.62;87.67
57779;BME280;43608;49.486;9.640;2023-01-28T02:49:09;99344.41;;;0.58;87.37
57779;BME280;43608;49.486;9.640;2023-01-28T02:49:45;99365.84;;;0.71;87.76
57779;BME280;43608;49.486;9.640;2023-01-28T02:50:19;99331.09;;;0.52;87.59
57779;BME280;43608;49.486;9.640;2023-01-28T02:51:01;99333.75;;;0.54;87.80
57779;BME280;43608;49.486;9.640;2023-01-28T02:54:11;99354.06;;;0.61;88.34
57779;BME280;43608;49.486;9.640;2023-01-28T02:54:56;99363.91;;;0.67;88.02
57779;BME280;43608;49.486;9.640;2023-01-28T02:56:27;99348.78;;;0.59;88.26
57779;BME280;43608;49.486;9.640;2023-01-28T02:57:08;99366.53;;;0.67;88.32
57779;BME280;43608;49.486;9.640;2023-01-28T02:58:04;99363.00;;;0.66;88.21
57779;BME280;43608;49.486;9.640;2023-01-28T02:59:35;99333.53;;;0.49;88.48
57779;BME280;43608;49.486;9.640;2023-01-28T03:01:25;99293.44;;;0.27;88.06
57779;BME280;43608;49.486;9.640;2023-01-28T03:02:22;99361.38;;;0.68;88.35
57779;BME280;43608;49.486;9.640;2023-01-28T03:05:18;99363.00;;;0.66;88.18
57779;BME280;43608;49.486;9.640;2023-01-28T03:05:41;99359.59;;;0.67;88.15
57779;BME280;43608;49.486;9.640;2023-01-28T03:06:53;99347.22;;;0.63;88.30
57779;BME280;43608;49.486;9.640;2023-01-28T03:07:28;99362.13;;;0.65;88.28
57779;BME280;43608;49.486;9.640;2023-01-28T03:08:03;99338.00;;;0.52;88.05
57779;BME280;43608;49.486;9.640;2023-01-28T03:08:58;99362.19;;;0.67;88.41
57779;BME280;43608;49.486;9.640;2023-01-28T03:09:49;99334.34;;;0.48;88.18
57779;BME280;43608;49.486;9.640;2023-01-28T03:10:23;99353.88;;;0.56;88.31
57779;BME280;43608;49.486;9.640;2023-01-28T03:10:55;99365.69;;;0.68;88.22
57779;BME280;43608;49.486;9.640;2023-01-28T03:11:50;99333.53;;;0.49;88.16
57779;BME280;43608;49.486;9.640;2023-01-28T03:12:41;99342.41;;;0.53;88.48
57779;BME280;43608;49.486;9.640;2023-01-28T03:13:31;99340.69;;;0.53;88.31
57779;BME280;43608;49.486;9.640;2023-01-28T03:14:21;99359.47;;;0.64;88.65
57779;BME280;43608;49.486;9.640;2023-01-28T03:15:20;99363.75;;;0.63;88.55
57779;BME280;43608;49.486;9.640;2023-01-28T03:16:10;99350.53;;;0.59;88.74
57779;BME280;43608;49.486;9.640;2023-01-28T03:17:00;99359.34;;;0.62;88.35
57779;BME280;43608;49.486;9.640;2023-01-28T03:18:17;99377.91;;;0.69;88.61
57779;BME280;43608;49.486;9.640;2023-01-28T03:19:10;99344.94;;;0.51;88.02
57779;BME280;43608;49.486;9.640;2023-01-28T03:20:00;99374.34;;;0.67;88.23
57779;BME280;43608;49.486;9.640;2023-01-28T03:20:56;99374.34;;;0.67;88.36
57779;BME280;43608;49.486;9.640;2023-01-28T03:21:49;99368.91;;;0.62;88.20
57779;BME280;43608;49.486;9.640;2023-01-28T03:22:40;99371.66;;;0.65;88.29
57779;BME280;43608;49.486;9.640;2023-01-28T03:23:38;99375.31;;;0.69;88.31
57779;BME280;43608;49.486;9.640;2023-01-28T03:24:42;99371.59;;;0.63;88.24
57779;BME280;43608;49.486;9.640;2023-01-28T03:25:33;99366.25;;;0.60;88.43
57779;BME280;43608;49.486;9.640;2023-01-28T03:26:23;99361.16;;;0.63;88.50